Time;durP1;ratioP1;P1;durP2;ratioP2;P2;SDS_P1;SDS_P2;PMS_P1;PMS_P2;Temp;Humidity;BMP_temperature;BMP_pressure;BME280_temperature;BME280_humidity;BME280_pressure;Samples;Min_cycle;Max_cycle;Signal;HPM_P1;HPM_P2
2022/06/14 00:01:36;;;;;;;21.60;19.15;;;;;;;10.50;nan;99315.59;2073783;28;20195;-74
2022/06/14 00:02:37;;;;;;;21.75;19.65;;;;;;;10.53;nan;99315.81;2074033;28;20222;-74
2022/06/14 00:03:40;;;;;;;21.77;19.77;;;;;;;10.54;nan;99317.41;2081736;28;20196;-74
2022/06/14 00:04:40;;;;;;;20.52;18.92;;;;;;;10.54;nan;99319.28;2073307;28;20196;-74
2022/06/14 00:05:42;;;;;;;25.77;19.97;;;;;;;10.47;nan;99309.75;2073180;28;20687;-74
2022/06/14 00:06:52;;;;;;;22.58;20.13;;;;;;;10.44;nan;99321.00;2072874;28;20227;-74
2022/06/14 00:07:54;;;;;;;21.95;19.83;;;;;;;10.43;nan;99318.63;2073536;28;20179;-74
2022/06/14 00:08:55;;;;;;;22.83;20.48;;;;;;;10.41;nan;99321.56;2073914;28;20199;-74
2022/06/14 00:09:57;;;;;;;22.30;19.77;;;;;;;10.44;nan;99323.69;2073968;28;20280;-74
2022/06/14 00:10:59;;;;;;;22.33;20.25;;;;;;;10.38;nan;99326.69;2073913;28;20688;-74
2022/06/14 00:12:02;;;;;;;22.25;20.20;;;;;;;10.41;nan;99329.56;2073224;28;20227;-75
2022/06/14 00:13:04;;;;;;;22.48;20.13;;;;;;;10.44;nan;99328.22;2065276;28;20200;-74
2022/06/14 00:14:08;;;;;;;22.67;20.35;;;;;;;10.44;nan;99325.56;2073532;28;20639;-75
2022/06/14 00:15:10;;;;;;;23.55;21.00;;;;;;;10.38;nan;99326.69;2075196;28;20196;-74
2022/06/14 00:16:15;;;;;;;26.08;20.50;;;;;;;10.34;nan;99328.38;2075580;28;20194;-74
2022/06/14 00:17:16;;;;;;;22.55;20.58;;;;;;;10.34;nan;99329.16;2075564;28;20215;-74
2022/06/14 00:18:18;;;;;;;23.60;21.30;;;;;;;10.39;nan;99337.06;2074830;28;20236;-74
2022/06/14 00:19:20;;;;;;;22.83;20.63;;;;;;;10.40;nan;99337.88;2074888;28;20307;-74
2022/06/14 00:20:22;;;;;;;23.85;21.45;;;;;;;10.36;nan;99335.00;2075076;28;20220;-74
2022/06/14 00:21:23;;;;;;;23.83;21.73;;;;;;;10.35;nan;99340.63;2074355;28;20737;-74
2022/06/14 00:22:25;;;;;;;23.83;21.53;;;;;;;10.38;nan;99337.38;2074846;28;20579;-75
2022/06/14 00:23:27;;;;;;;22.90;20.67;;;;;;;10.39;nan;99333.63;2066829;28;20189;-74
2022/06/14 00:24:29;;;;;;;23.73;21.70;;;;;;;10.41;nan;99339.44;2066766;28;20193;-74
2022/06/14 00:25:32;;;;;;;22.77;20.60;;;;;;;10.39;nan;99336.28;2074913;28;20267;-74
2022/06/14 00:26:34;;;;;;;23.77;21.67;;;;;;;10.43;nan;99337.31;2075570;28;20219;-74
2022/06/14 00:27:35;;;;;;;23.50;21.25;;;;;;;10.42;nan;99336.53;2074689;28;20192;-74
2022/06/14 00:28:36;;;;;;;24.30;21.60;;;;;;;10.44;nan;99344.22;2074978;28;20184;-74
2022/06/14 00:29:39;;;;;;;23.75;21.52;;;;;;;10.48;nan;99345.22;2082816;28;20206;-74
2022/06/14 00:30:45;;;;;;;23.85;21.75;;;;;;;10.51;nan;99339.31;2082625;28;20223;-74
2022/06/14 00:31:47;;;;;;;23.40;21.00;;;;;;;10.50;nan;99332.38;2075438;28;20191;-74
2022/06/14 00:32:49;;;;;;;22.73;20.65;;;;;;;10.48;nan;99334.56;2075346;28;20192;-74
2022/06/14 00:33:52;;;;;;;23.85;21.40;;;;;;;10.46;nan;99334.84;2082916;28;20705;-74
2022/06/14 00:34:53;;;;;;;24.52;21.98;;;;;;;10.44;nan;99330.88;2091084;28;20206;-74
2022/06/14 00:35:59;;;;;;;22.30;20.33;;;;;;;10.47;nan;99332.97;2090683;28;20219;-75
2022/06/14 00:37:00;;;;;;;23.42;21.02;;;;;;;10.45;nan;99335.94;2074681;28;20195;-74
2022/06/14 00:38:03;;;;;;;23.63;21.30;;;;;;;10.44;nan;99333.56;2074947;28;20731;-74
2022/06/14 00:39:06;;;;;;;22.58;20.48;;;;;;;10.39;nan;99330.94;2074710;28;20220;-75
2022/06/14 00:40:09;;;;;;;22.83;20.63;;;;;;;10.43;nan;99335.44;2074683;28;20263;-74
2022/06/14 00:41:13;;;;;;;22.80;20.60;;;;;;;10.47;nan;99330.31;2075352;28;20559;-74
2022/06/14 00:42:18;;;;;;;23.33;21.13;;;;;;;10.46;nan;99331.38;2075260;28;20189;-74
2022/06/14 00:43:19;;;;;;;23.75;21.23;;;;;;;10.50;nan;99337.72;2075463;28;20204;-74
2022/06/14 00:44:23;;;;;;;30.50;22.43;;;;;;;10.51;nan;99333.19;2075307;28;20192;-75
2022/06/14 00:46:01;;;;;;;25.45;22.05;;;;;;;10.52;nan;99337.47;2082756;28;20203;-74
2022/06/14 00:47:07;;;;;;;23.65;21.38;;;;;;;10.52;nan;99332.91;2074529;28;20694;-74
2022/06/14 00:48:11;;;;;;;27.27;22.67;;;;;;;10.55;nan;99340.34;2074839;28;20259;-74
2022/06/14 00:49:17;;;;;;;24.35;21.75;;;;;;;10.54;nan;99341.41;2074536;28;20287;-74
2022/06/14 00:50:20;;;;;;;25.25;22.17;;;;;;;10.55;nan;99343.00;2074748;28;20176;-74
2022/06/14 00:51:24;;;;;;;25.08;22.55;;;;;;;10.55;nan;99328.88;2074167;28;20224;-74
2022/06/14 00:52:29;;;;;;;24.25;21.90;;;;;;;10.55;nan;99337.66;2074694;28;20188;-74
2022/06/14 00:53:35;;;;;;;26.38;22.38;;;;;;;10.56;nan;99330.44;2074773;28;20227;-75
2022/06/14 00:54:39;;;;;;;24.83;21.73;;;;;;;10.56;nan;99343.78;2067186;28;20543;-74
2022/06/14 00:55:45;;;;;;;26.92;22.98;;;;;;;10.55;nan;99350.22;2083071;28;20756;-75
2022/06/14 00:56:52;;;;;;;25.52;22.85;;;;;;;10.50;nan;99345.72;2089832;28;20175;-74
2022/06/14 00:57:57;;;;;;;26.83;22.40;;;;;;;10.49;nan;99349.47;2075171;28;20185;-74
2022/06/14 00:59:03;;;;;;;24.42;22.15;;;;;;;10.54;nan;99345.97;2075101;28;20194;-74
2022/06/14 01:00:07;;;;;;;24.85;22.30;;;;;;;10.53;nan;99353.16;2074464;28;20595;-74
2022/06/14 01:01:13;;;;;;;24.00;21.45;;;;;;;10.60;nan;99347.44;2074675;28;20192;-74
2022/06/14 01:02:21;;;;;;;24.85;22.10;;;;;;;10.58;nan;99355.75;2075633;28;20191;-74
2022/06/14 01:03:24;;;;;;;23.83;21.25;;;;;;;10.60;nan;99358.13;2075163;28;20666;-74
2022/06/14 01:04:29;;;;;;;23.73;21.63;;;;;;;10.65;nan;99356.19;2074490;28;20659;-75
2022/06/14 01:06:05;;;;;;;24.35;21.83;;;;;;;10.66;nan;99360.44;2074759;28;20578;-77
2022/06/14 01:06:58;;;;;;;24.85;22.55;;;;;;;10.64;nan;99354.59;2074777;28;20223;-74
2022/06/14 01:07:58;;;;;;;24.35;21.83;;;;;;;10.73;nan;99360.88;2074462;28;20291;-75
2022/06/14 01:09:07;;;;;;;24.50;22.00;;;;;;;10.75;nan;99350.69;2074621;28;20188;-74
2022/06/14 01:10:16;;;;;;;26.17;21.83;;;;;;;10.80;nan;99346.38;2075382;28;20268;-74
2022/06/14 01:11:24;;;;;;;24.95;22.45;;;;;;;10.86;nan;99355.88;2074592;28;20635;-75
2022/06/14 01:12:30;;;;;;;32.92;23.02;;;;;;;10.86;nan;99355.88;2074588;28;20256;-74
2022/06/14 01:13:31;;;;;;;25.58;23.00;;;;;;;10.88;nan;99356.41;2075093;28;20639;-75
2022/06/14 01:14:43;;;;;;;24.65;21.65;;;;;;;10.88;nan;99346.53;2082575;28;20286;-74
2022/06/14 01:15:45;;;;;;;25.08;22.02;;;;;;;10.87;nan;99358.28;2074454;28;20247;-74
2022/06/14 01:16:47;;;;;;;24.83;22.23;;;;;;;10.84;nan;99358.06;2066466;28;20189;-74
2022/06/14 01:17:52;;;;;;;24.55;21.45;;;;;;;10.87;nan;99357.50;2066548;28;20212;-74
2022/06/14 01:18:53;;;;;;;24.55;22.25;;;;;;;10.85;nan;99352.41;2074654;28;20197;-74
2022/06/14 01:19:56;;;;;;;25.17;21.98;;;;;;;10.78;nan;99357.34;2074388;28;20192;-75
2022/06/14 01:20:57;;;;;;;24.48;22.17;;;;;;;10.83;nan;99361.81;2065997;28;20354;-75
2022/06/14 01:22:22;;;;;;;24.17;21.50;;;;;;;10.84;nan;99358.06;2074416;28;20338;-74
2022/06/14 01:23:24;;;;;;;24.90;21.58;;;;;;;10.82;nan;99357.56;2074308;28;20596;-74
2022/06/14 01:24:25;;;;;;;24.35;21.65;;;;;;;10.84;nan;99360.72;2074607;28;20686;-74
2022/06/14 01:25:30;;;;;;;26.73;23.20;;;;;;;10.84;nan;99358.06;2074294;28;20570;-74
2022/06/14 01:26:32;;;;;;;24.23;22.05;;;;;;;10.87;nan;99360.16;2073604;28;20192;-74
2022/06/14 01:27:37;;;;;;;25.38;22.75;;;;;;;10.89;nan;99360.66;2074294;28;20203;-74
2022/06/14 01:28:40;;;;;;;25.10;22.73;;;;;;;10.94;nan;99357.88;2074444;28;20278;-74
2022/06/14 01:29:46;;;;;;;25.33;22.38;;;;;;;10.93;nan;99364.31;2082465;28;20674;-74
2022/06/14 01:30:50;;;;;;;23.45;21.33;;;;;;;10.96;nan;99353.88;2081964;28;20222;-74
2022/06/14 01:31:52;;;;;;;26.08;22.50;;;;;;;10.98;nan;99358.91;2074133;28;20721;-75
2022/06/14 01:32:57;;;;;;;24.83;22.42;;;;;;;10.95;nan;99356.84;2074542;28;20204;-75
2022/06/14 01:34:02;;;;;;;26.45;23.40;;;;;;;10.96;nan;99356.53;2075064;28;20679;-75
2022/06/14 01:35:06;;;;;;;25.95;23.45;;;;;;;11.00;nan;99356.75;2074605;28;20196;-75
2022/06/14 01:36:11;;;;;;;26.05;22.33;;;;;;;10.94;nan;99358.69;2073842;28;20612;-75
2022/06/14 01:37:13;;;;;;;26.15;23.52;;;;;;;10.94;nan;99357.88;2090657;28;20233;-75
2022/06/14 01:38:17;;;;;;;26.55;23.73;;;;;;;10.90;nan;99362.25;2090619;28;20664;-75
2022/06/14 01:39:19;;;;;;;25.77;23.20;;;;;;;10.87;nan;99360.94;2075036;28;20196;-75
2022/06/14 01:40:26;;;;;;;29.25;23.67;;;;;;;10.88;nan;99364.41;2074132;28;20559;-75
2022/06/14 01:41:34;;;;;;;27.33;23.27;;;;;;;10.88;nan;99365.22;2074651;28;20180;-75
2022/06/14 01:42:46;;;;;;;27.08;23.50;;;;;;;10.80;nan;99362.41;2074266;28;20675;-74
2022/06/14 01:43:59;;;;;;;26.73;23.98;;;;;;;10.84;nan;99363.38;2074443;28;20192;-74
2022/06/14 01:45:07;;;;;;;26.65;23.83;;;;;;;10.80;nan;99362.41;2074961;28;20656;-74
2022/06/14 01:46:22;;;;;;;28.35;24.38;;;;;;;10.79;nan;99366.16;2075019;28;20689;-75
2022/06/14 01:47:30;;;;;;;27.50;24.23;;;;;;;10.84;nan;99372.19;2074994;28;20536;-74
2022/06/14 01:48:35;;;;;;;29.95;25.17;;;;;;;10.88;nan;99372.41;2090595;28;20195;-75
2022/06/14 01:52:44;;;;;;;29.23;25.58;;;;;;;10.92;nan;99371.53;2074092;28;20188;-75
2022/06/14 01:53:50;;;;;;;37.08;25.08;;;;;;;10.89;nan;99369.47;2067018;28;20628;-75
2022/06/14 01:54:57;;;;;;;30.73;25.55;;;;;;;10.96;nan;99374.44;2066540;28;20196;-75
2022/06/14 01:56:03;;;;;;;28.80;25.67;;;;;;;10.97;nan;99371.47;2074401;28;20176;-75
2022/06/14 01:57:09;;;;;;;32.50;26.63;;;;;;;11.08;nan;99368.63;2074109;28;20204;-75
2022/06/14 01:58:17;;;;;;;32.78;25.85;;;;;;;11.11;nan;99368.84;2066513;28;20205;-75
2022/06/14 01:59:24;;;;;;;31.67;25.00;;;;;;;11.14;nan;99370.94;2074386;28;20173;-75
2022/06/14 02:00:28;;;;;;;30.70;24.77;;;;;;;11.18;nan;99369.25;2074921;28;20180;-74
2022/06/14 02:01:34;;;;;;;31.10;25.38;;;;;;;11.16;nan;99368.75;2074842;28;20535;-74
2022/06/14 02:02:39;;;;;;;30.55;25.27;;;;;;;11.18;nan;99366.59;2074945;28;20202;-74
2022/06/14 02:05:08;;;;;;;32.75;28.13;;;;;;;11.25;nan;99358.22;2074922;28;20204;-74
2022/06/14 02:06:14;;;;;;;37.88;26.48;;;;;;;11.27;nan;99372.06;2073621;28;20204;-74
2022/06/14 02:07:24;;;;;;;28.88;25.75;;;;;;;11.28;nan;99371.75;2074370;28;20602;-75
2022/06/14 02:08:28;;;;;;;29.92;25.65;;;;;;;11.29;nan;99370.69;2074797;28;20172;-74
2022/06/14 02:09:37;;;;;;;28.73;25.48;;;;;;;11.32;nan;99370.09;2074628;28;20193;-74
2022/06/14 02:10:41;;;;;;;33.72;27.50;;;;;;;11.31;nan;99375.75;2074906;28;20179;-75
2022/06/14 02:11:44;;;;;;;33.92;28.23;;;;;;;11.26;nan;99379.28;2074559;28;20192;-74
2022/06/14 02:12:51;;;;;;;33.30;27.75;;;;;;;11.25;nan;99375.03;2074644;28;20203;-74
2022/06/14 02:13:55;;;;;;;39.50;28.17;;;;;;;11.27;nan;99377.41;2074622;28;20176;-74
2022/06/14 02:14:59;;;;;;;34.22;27.65;;;;;;;11.26;nan;99379.28;2073900;28;20192;-74
2022/06/14 02:16:06;;;;;;;32.10;28.48;;;;;;;11.21;nan;99374.03;2074199;28;20276;-74
2022/06/14 02:17:10;;;;;;;34.05;29.15;;;;;;;11.17;nan;99383.69;2074546;28;20187;-74
2022/06/14 02:18:15;;;;;;;35.05;27.80;;;;;;;11.15;nan;99385.09;2073883;28;20270;-74
2022/06/14 02:19:21;;;;;;;38.97;28.65;;;;;;;11.12;nan;99386.47;2066315;28;20224;-74
2022/06/14 02:20:27;;;;;;;33.65;29.27;;;;;;;11.08;nan;99385.44;2066419;28;20193;-74
2022/06/14 02:21:33;;;;;;;33.78;28.60;;;;;;;11.09;nan;99395.03;2073687;28;20223;-75
2022/06/14 02:22:38;;;;;;;32.40;28.88;;;;;;;11.13;nan;99396.06;2073825;28;20291;-74
2022/06/14 02:23:42;;;;;;;37.17;29.60;;;;;;;11.18;nan;99403.97;2066336;28;20723;-75
2022/06/14 02:24:47;;;;;;;39.90;30.33;;;;;;;11.17;nan;99402.41;2074097;28;20192;-75
2022/06/14 02:25:53;;;;;;;34.97;29.63;;;;;;;11.21;nan;99400.75;2074933;28;20609;-74
2022/06/14 02:27:00;;;;;;;40.00;31.20;;;;;;;11.22;nan;99406.88;2074546;28;20204;-75
2022/06/14 02:28:04;;;;;;;35.95;30.20;;;;;;;11.29;nan;99401.94;2074833;28;20524;-75
2022/06/14 02:29:09;;;;;;;43.80;30.70;;;;;;;11.30;nan;99403.53;2074691;28;20188;-75
2022/06/14 02:30:14;;;;;;;35.53;29.75;;;;;;;11.25;nan;99407.06;2073874;28;20232;-75
2022/06/14 02:31:19;;;;;;;50.00;31.45;;;;;;;11.26;nan;99406.00;2073943;28;20634;-75
2022/06/14 02:32:23;;;;;;;37.55;29.83;;;;;;;11.22;nan;99409.56;2073930;28;20204;-75
2022/06/14 02:33:30;;;;;;;42.58;30.38;;;;;;;11.21;nan;99411.44;2074185;28;20188;-75
2022/06/14 02:34:33;;;;;;;39.53;30.10;;;;;;;11.22;nan;99413.00;2075001;28;20173;-75
2022/06/14 02:35:39;;;;;;;37.97;31.40;;;;;;;11.25;nan;99412.41;2074823;28;20252;-75
2022/06/14 02:36:46;;;;;;;33.65;29.33;;;;;;;11.29;nan;99424.13;2073858;28;20223;-76
2022/06/14 02:37:52;;;;;;;40.50;29.58;;;;;;;11.30;nan;99412.34;2082925;28;20678;-75
2022/06/14 02:38:56;;;;;;;37.30;31.20;;;;;;;11.31;nan;99413.94;2080850;28;20227;-75
2022/06/14 02:40:03;;;;;;;38.00;29.90;;;;;;;11.35;nan;99413.34;2073977;28;20184;-75
2022/06/14 02:41:08;;;;;;;42.78;32.05;;;;;;;11.35;nan;99413.34;2073745;28;20740;-75
2022/06/14 02:42:14;;;;;;;36.20;30.70;;;;;;;11.45;nan;99413.97;2074163;28;20176;-75
2022/06/14 02:43:18;;;;;;;37.10;29.50;;;;;;;11.49;nan;99420.31;2074688;28;20191;-75
2022/06/14 02:44:23;;;;;;;37.00;31.40;;;;;;;11.49;nan;99412.31;2082243;28;20290;-75
2022/06/14 02:45:27;;;;;;;41.97;32.35;;;;;;;11.48;nan;99420.63;2081766;28;20188;-76
2022/06/14 02:46:33;;;;;;;40.45;31.27;;;;;;;11.51;nan;99420.81;2074645;28;20571;-75
2022/06/14 02:47:39;;;;;;;48.65;33.22;;;;;;;11.49;nan;99422.19;2074129;28;20682;-76
2022/06/14 02:48:45;;;;;;;49.00;32.40;;;;;;;11.53;nan;99423.19;2074087;28;20722;-76
2022/06/14 02:49:52;;;;;;;43.28;33.28;;;;;;;11.57;nan;99424.22;2075092;28;20689;-75
2022/06/14 02:50:56;;;;;;;41.03;31.75;;;;;;;11.59;nan;99427.38;2073974;28;20627;-75
2022/06/14 02:52:01;;;;;;;44.08;32.90;;;;;;;11.62;nan;99421.44;2074528;28;20179;-75
2022/06/14 02:53:06;;;;;;;37.78;32.10;;;;;;;11.62;nan;99426.78;2074478;28;20279;-75
2022/06/14 02:54:12;;;;;;;42.85;34.22;;;;;;;11.70;nan;99425.31;2073660;28;20200;-76
2022/06/14 02:55:20;;;;;;;49.67;33.85;;;;;;;11.69;nan;99432.53;2074376;28;20733;-76
2022/06/14 02:56:25;;;;;;;43.53;32.83;;;;;;;11.61;nan;99427.88;2074317;28;20204;-76
2022/06/14 02:57:31;;;;;;;49.80;33.95;;;;;;;11.63;nan;99432.91;2074458;28;20242;-76
2022/06/14 02:58:36;;;;;;;42.40;32.40;;;;;;;11.63;nan;99427.56;2073904;28;20219;-75
2022/06/14 02:59:42;;;;;;;46.28;32.92;;;;;;;11.63;nan;99433.69;2073972;28;20636;-75
2022/06/14 03:00:47;;;;;;;45.00;33.95;;;;;;;11.66;nan;99437.69;2081677;28;20207;-75
2022/06/14 03:01:55;;;;;;;48.58;34.70;;;;;;;11.67;nan;99440.06;2073825;28;20192;-75
2022/06/14 03:02:59;;;;;;;47.22;34.53;;;;;;;11.71;nan;99435.69;2074036;28;20181;-75
2022/06/14 03:04:06;;;;;;;48.58;33.15;;;;;;;11.70;nan;99436.00;2074167;28;20219;-76
2022/06/14 03:05:11;;;;;;;43.60;33.30;;;;;;;11.73;nan;99440.78;2073701;28;20219;-75
2022/06/14 03:06:15;;;;;;;43.60;34.25;;;;;;;11.77;nan;99439.09;2074387;28;20239;-75
2022/06/14 03:07:20;;;;;;;44.05;34.20;;;;;;;11.76;nan;99440.19;2075431;28;20189;-76
2022/06/14 03:08:26;;;;;;;41.78;33.15;;;;;;;11.74;nan;99440.47;2075793;28;20183;-76
2022/06/14 03:09:31;;;;;;;46.90;34.38;;;;;;;11.73;nan;99438.09;2075204;28;20207;-76
2022/06/14 03:10:40;;;;;;;43.20;35.20;;;;;;;11.70;nan;99436.78;2076005;28;20194;-76
2022/06/14 03:11:48;;;;;;;43.03;33.85;;;;;;;11.77;nan;99439.88;2074736;28;20219;-76
2022/06/14 03:12:56;;;;;;;44.88;34.35;;;;;;;11.81;nan;99440.91;2068251;28;20216;-76
2022/06/14 03:14:01;;;;;;;50.30;35.42;;;;;;;11.79;nan;99440.38;2068190;28;20193;-76
2022/06/14 03:15:08;;;;;;;43.50;32.47;;;;;;;11.84;nan;99447.56;2068013;28;20292;-76
2022/06/14 03:16:19;;;;;;;45.70;34.00;;;;;;;11.81;nan;99430.19;2066557;28;20568;-76
2022/06/14 03:17:25;;;;;;;41.85;33.42;;;;;;;11.88;nan;99438.63;2074622;28;20200;-76
2022/06/14 03:18:34;;;;;;;42.97;34.17;;;;;;;11.93;nan;99445.00;2074471;28;20187;-76
2022/06/14 03:19:39;;;;;;;44.08;33.60;;;;;;;11.91;nan;99442.63;2074840;28;20662;-76
2022/06/14 03:20:54;;;;;;;42.65;33.72;;;;;;;11.89;nan;99447.44;2074944;28;20287;-76
2022/06/14 03:21:58;;;;;;;46.72;34.00;;;;;;;11.87;nan;99452.31;2074685;28;20625;-76
2022/06/14 03:23:05;;;;;;;44.20;33.45;;;;;;;11.90;nan;99449.03;2074790;28;20218;-81
2022/06/14 03:24:12;;;;;;;45.55;34.17;;;;;;;11.96;nan;99452.41;2073924;28;20249;-77
2022/06/14 03:25:18;;;;;;;48.42;34.13;;;;;;;11.92;nan;99456.78;2073888;28;20180;-77
2022/06/14 03:26:28;;;;;;;42.53;32.60;;;;;;;11.99;nan;99457.16;2073746;28;20192;-77
2022/06/14 03:27:35;;;;;;;53.85;34.80;;;;;;;12.01;nan;99453.13;2073838;28;20263;-78
2022/06/14 03:28:39;;;;;;;43.65;33.65;;;;;;;12.05;nan;99461.34;2073400;28;20192;-77
2022/06/14 03:29:45;;;;;;;43.72;34.08;;;;;;;12.03;nan;99458.19;2065852;28;20204;-77
2022/06/14 03:30:48;;;;;;;47.92;34.65;;;;;;;12.01;nan;99452.34;2073961;28;20259;-77
2022/06/14 03:31:53;;;;;;;43.97;33.67;;;;;;;12.01;nan;99452.34;2073386;28;20204;-78
2022/06/14 03:33:00;;;;;;;47.03;34.72;;;;;;;12.01;nan;99460.38;2065712;28;20617;-77
2022/06/14 03:34:05;;;;;;;46.28;34.70;;;;;;;11.97;nan;99462.81;2073510;28;20619;-77
2022/06/14 03:35:10;;;;;;;47.35;33.60;;;;;;;11.99;nan;99467.88;2074215;28;20208;-77
2022/06/14 03:36:14;;;;;;;48.83;34.60;;;;;;;12.00;nan;99464.13;2080953;28;20675;-77
2022/06/14 03:37:17;;;;;;;51.13;35.78;;;;;;;12.00;nan;99469.47;2073446;28;20291;-77
2022/06/14 03:38:25;;;;;;;51.13;35.30;;;;;;;12.05;nan;99464.81;2065746;28;20227;-77
2022/06/14 03:39:33;;;;;;;42.83;34.20;;;;;;;12.11;nan;99463.63;2073606;28;20558;-77
2022/06/14 03:40:35;;;;;;;48.63;35.03;;;;;;;12.17;nan;99472.38;2073760;28;20295;-78
2022/06/14 03:41:43;;;;;;;44.80;34.17;;;;;;;12.13;nan;99468.69;2081523;28;20353;-77
2022/06/14 03:42:46;;;;;;;45.53;35.67;;;;;;;12.16;nan;99474.25;2088824;28;20207;-78
2022/06/14 03:43:49;;;;;;;50.85;35.97;;;;;;;12.10;nan;99466.63;2074148;28;20177;-77
2022/06/14 03:44:53;;;;;;;46.58;36.55;;;;;;;12.03;nan;99472.34;2074516;28;20701;-78
2022/06/14 03:45:57;;;;;;;43.25;35.35;;;;;;;12.05;nan;99472.03;2073311;28;20627;-78
2022/06/14 03:47:23;;;;;;;51.83;37.05;;;;;;;12.13;nan;99476.72;2065556;28;20197;-78
2022/06/14 03:48:24;;;;;;;52.10;37.78;;;;;;;12.12;nan;99478.59;2058961;28;20215;-77
2022/06/14 03:49:28;;;;;;;49.43;37.07;;;;;;;12.14;nan;99481.75;2081273;28;20686;-78
2022/06/14 03:50:35;;;;;;;52.17;38.00;;;;;;;12.16;nan;99484.13;2081333;28;20342;-78
2022/06/14 03:51:48;;;;;;;47.97;37.58;;;;;;;12.10;nan;99486.13;2073130;28;20215;-78
2022/06/14 03:52:59;;;;;;;50.10;37.70;;;;;;;12.19;nan;99483.56;2074513;28;20684;-78
2022/06/14 03:54:13;;;;;;;55.25;38.15;;;;;;;12.26;nan;99486.66;2073290;28;20202;-79
2022/06/14 03:55:30;;;;;;;51.35;37.30;;;;;;;12.32;nan;99487.31;2074228;28;20305;-80
2022/06/14 03:56:44;;;;;;;52.28;37.50;;;;;;;12.28;nan;99486.34;2073272;28;20207;-79
2022/06/14 03:58:00;;;;;;;47.15;36.20;;;;;;;12.31;nan;99489.22;2083679;28;20353;-79
2022/06/14 03:59:26;;;;;;;54.00;38.70;;;;;;;12.14;nan;99483.63;2079592;28;20202;-84
2022/06/14 04:00:32;;;;;;;55.17;38.97;;;;;;;12.06;nan;99485.13;2073917;28;20260;-80
2022/06/14 04:01:40;;;;;;;53.20;39.35;;;;;;;12.11;nan;99485.03;2074052;28;20242;-88
2022/06/14 04:02:55;;;;;;;56.20;40.00;;;;;;;12.21;nan;99486.72;2073227;28;20287;-75
2022/06/14 04:04:08;;;;;;;57.22;38.58;;;;;;;12.19;nan;99478.22;2083599;28;20199;-74
2022/06/14 04:05:18;;;;;;;55.78;38.78;;;;;;;12.30;nan;99490.31;2086591;28;20183;-79
2022/06/14 04:06:34;;;;;;;55.78;39.80;;;;;;;12.22;nan;99482.97;2072557;28;20274;-88
2022/06/14 04:07:41;;;;;;;50.88;39.47;;;;;;;12.32;nan;99488.13;2067960;28;20243;-90
2022/06/14 04:08:50;;;;;;;55.45;38.60;;;;;;;12.34;nan;99493.97;2067426;28;20185;-84
2022/06/14 04:09:57;;;;;;;51.97;37.65;;;;;;;12.27;nan;99488.22;2073302;28;20188;-76
2022/06/14 04:11:08;;;;;;;51.55;38.17;;;;;;;12.22;nan;99491.00;2073417;28;20216;-75
2022/06/14 04:12:18;;;;;;;48.53;37.95;;;;;;;12.21;nan;99488.63;2073560;28;20215;-76
2022/06/14 04:13:28;;;;;;;56.65;39.53;;;;;;;12.22;nan;99488.31;2073305;28;20283;-81
2022/06/14 04:14:39;;;;;;;58.70;38.35;;;;;;;12.23;nan;99489.91;2073660;28;20533;-82
2022/06/14 04:15:45;;;;;;;51.60;39.15;;;;;;;12.21;nan;99492.06;2074068;28;20200;-82
2022/06/14 04:16:56;;;;;;;51.80;38.20;;;;;;;12.22;nan;99492.88;2081547;28;20532;-82
2022/06/14 04:19:42;;;;;;;59.25;38.60;;;;;;;12.27;nan;99490.91;2073040;28;20655;-82
2022/06/14 04:20:44;;;;;;;55.42;38.85;;;;;;;12.32;nan;99498.81;2073785;28;20164;-81
2022/06/14 04:21:52;;;;;;;55.10;38.40;;;;;;;12.24;nan;99496.03;2073024;28;20729;-82
2022/06/14 04:23:05;;;;;;;46.55;38.22;;;;;;;12.25;nan;99502.97;2073508;28;20188;-82
2022/06/14 04:24:12;;;;;;;50.10;37.00;;;;;;;12.22;nan;99499.00;2073551;28;20189;-82
2022/06/14 04:25:25;;;;;;;51.45;37.70;;;;;;;12.26;nan;99496.56;2066545;28;20295;-81
2022/06/14 04:26:32;;;;;;;51.05;37.97;;;;;;;12.29;nan;99499.41;2073671;28;20169;-82
2022/06/14 04:27:41;;;;;;;50.95;39.13;;;;;;;12.24;nan;99496.81;2074376;28;20168;-85
2022/06/14 04:28:48;;;;;;;50.83;37.33;;;;;;;12.25;nan;99503.78;2074914;28;20169;-87
2022/06/14 04:29:55;;;;;;;55.63;38.30;;;;;;;12.23;nan;99505.94;2074525;28;20208;-75
2022/06/14 04:30:58;;;;;;;48.60;37.85;;;;;;;12.25;nan;99501.13;2081294;28;20291;-81
2022/06/14 04:32:07;;;;;;;48.65;37.72;;;;;;;12.36;nan;99510.53;2073318;28;20231;-80
2022/06/14 04:33:12;;;;;;;52.35;38.25;;;;;;;12.35;nan;99508.94;2073356;28;20227;-79
2022/06/14 04:34:19;;;;;;;51.00;38.60;;;;;;;12.35;nan;99513.50;2073788;28;20271;-80
2022/06/14 04:35:22;;;;;;;53.50;38.83;;;;;;;12.34;nan;99515.38;2074375;28;20188;-79
2022/06/14 04:36:28;;;;;;;51.67;38.55;;;;;;;12.34;nan;99510.03;2072725;28;20270;-79
2022/06/14 04:37:33;;;;;;;54.53;40.92;;;;;;;12.34;nan;99502.00;2073346;28;20719;-75
2022/06/14 04:38:38;;;;;;;51.97;37.45;;;;;;;12.35;nan;99508.94;2073352;28;20549;-75
2022/06/14 04:39:45;;;;;;;50.67;37.45;;;;;;;12.38;nan;99508.34;2073825;28;20267;-75
2022/06/14 04:40:53;;;;;;;56.65;39.25;;;;;;;12.38;nan;99503.00;2073503;28;20623;-84
2022/06/14 04:41:58;;;;;;;47.78;37.30;;;;;;;12.44;nan;99506.38;2066906;28;20312;-84
2022/06/14 04:43:04;;;;;;;64.97;40.03;;;;;;;12.42;nan;99501.31;2073232;28;20759;-75
2022/06/14 04:44:08;;;;;;;56.17;40.10;;;;;;;12.48;nan;99503.88;2073275;28;20220;-75
2022/06/14 04:45:12;;;;;;;64.93;39.42;;;;;;;12.58;nan;99501.00;2074132;28;20275;-81
2022/06/14 04:46:17;;;;;;;53.17;39.47;;;;;;;12.60;nan;99504.19;2073830;28;20662;-76
2022/06/14 04:47:24;;;;;;;55.40;37.80;;;;;;;12.58;nan;99511.72;2073837;28;20255;-77
2022/06/14 04:48:31;;;;;;;48.72;37.78;;;;;;;12.62;nan;99502.00;2074057;28;20264;-76
2022/06/14 04:49:42;;;;;;;46.03;36.35;;;;;;;12.61;nan;99513.81;2073901;28;20181;-77
2022/06/14 04:50:46;;;;;;;54.25;38.28;;;;;;;12.53;nan;99509.94;2074321;28;20671;-77
2022/06/14 04:51:51;;;;;;;55.38;37.00;;;;;;;12.53;nan;99501.13;2073550;28;20220;-78
2022/06/14 04:53:04;;;;;;;50.40;37.30;;;;;;;12.58;nan;99507.16;2074381;28;20223;-78
2022/06/14 04:54:10;;;;;;;47.13;35.08;;;;;;;12.57;nan;99504.78;2073896;28;20173;-77
2022/06/14 04:55:15;;;;;;;47.75;37.63;;;;;;;12.55;nan;99506.97;2074075;28;20211;-78
2022/06/14 04:56:21;;;;;;;52.70;36.60;;;;;;;12.54;nan;99503.50;2074307;28;20169;-75
2022/06/14 04:57:27;;;;;;;50.35;37.65;;;;;;;12.50;nan;99502.50;2073777;28;20176;-71
2022/06/14 04:58:36;;;;;;;49.00;37.10;;;;;;;12.48;nan;99504.69;2074402;28;20535;-79
2022/06/14 04:59:42;;;;;;;50.63;35.63;;;;;;;12.46;nan;99506.88;2082624;28;20211;-79
2022/06/14 05:00:48;;;;;;;55.38;37.53;;;;;;;12.48;nan;99509.25;2074832;28;20671;-79
2022/06/14 05:01:53;;;;;;;52.00;38.40;;;;;;;12.47;nan;99513.00;2074210;28;20196;-78
2022/06/14 05:02:59;;;;;;;50.55;37.20;;;;;;;12.48;nan;99517.28;2074911;28;20199;-78
2022/06/14 05:04:04;;;;;;;49.67;36.92;;;;;;;12.54;nan;99516.09;2074578;28;20319;-78
2022/06/14 05:05:09;;;;;;;49.92;36.90;;;;;;;12.60;nan;99514.91;2074641;28;20184;-79
2022/06/14 05:06:13;;;;;;;49.95;38.17;;;;;;;12.60;nan;99512.22;2074614;28;20673;-80
2022/06/14 05:07:17;;;;;;;53.20;37.22;;;;;;;12.63;nan;99514.31;2075256;28;20176;-79
2022/06/14 05:08:23;;;;;;;49.78;38.33;;;;;;;12.71;nan;99522.44;2074381;28;20681;-79
2022/06/14 05:09:29;;;;;;;46.40;36.72;;;;;;;12.71;nan;99510.94;2074611;28;20196;-79
2022/06/14 05:10:32;;;;;;;47.58;37.40;;;;;;;12.73;nan;99517.56;2074329;28;20326;-78
2022/06/14 05:11:37;;;;;;;51.63;36.63;;;;;;;12.72;nan;99515.97;2074521;28;20188;-79
2022/06/14 05:12:44;;;;;;;46.15;37.08;;;;;;;12.80;nan;99514.50;2075270;28;20205;-80
2022/06/14 05:13:50;;;;;;;51.45;36.33;;;;;;;12.89;nan;99518.06;2075241;28;20200;-80
2022/06/14 05:14:55;;;;;;;48.58;37.05;;;;;;;12.89;nan;99511.91;2075409;28;20639;-80
2022/06/14 05:16:03;;;;;;;49.75;34.75;;;;;;;13.09;nan;99516.03;2075158;28;20644;-80
2022/06/14 05:17:07;;;;;;;41.88;34.70;;;;;;;12.96;nan;99521.13;2074511;28;20192;-79
2022/06/14 05:18:12;;;;;;;45.85;35.05;;;;;;;13.04;nan;99508.13;2074630;28;20545;-80